sensor_id;sensor_type;location;lat;lon;timestamp;temperature;humidity
46336;DHT22;31365;48.858;8.530;2023-05-17T00:00:27;10.20;99.90
46336;DHT22;31365;48.858;8.530;2023-05-17T00:02:55;10.50;99.90
46336;DHT22;31365;48.858;8.530;2023-05-17T00:05:24;10.50;99.90
46336;DHT22;31365;48.858;8.530;2023-05-17T00:07:52;10.00;99.90
46336;DHT22;31365;48.858;8.530;2023-05-17T00:10:21;9.90;99.90
46336;DHT22;31365;48.858;8.530;2023-05-17T00:12:50;10.10;99.90
46336;DHT22;31365;48.858;8.530;2023-05-17T00:15:18;10.40;99.90
46336;DHT22;31365;48.858;8.530;2023-05-17T00:17:47;10.60;99.90
46336;DHT22;31365;48.858;8.530;2023-05-17T00:20:15;10.90;99.90
46336;DHT22;31365;48.858;8.530;2023-05-17T00:22:44;11.20;99.90
46336;DHT22;31365;48.858;8.530;2023-05-17T00:25:13;11.50;99.90
46336;DHT22;31365;48.858;8.530;2023-05-17T00:27:42;11.20;99.90
46336;DHT22;31365;48.858;8.530;2023-05-17T00:30:11;10.70;99.90
46336;DHT22;31365;48.858;8.530;2023-05-17T00:32:40;9.90;99.90
46336;DHT22;31365;48.858;8.530;2023-05-17T00:35:08;9.70;99.90
46336;DHT22;31365;48.858;8.530;2023-05-17T00:37:37;9.60;99.90
46336;DHT22;31365;48.858;8.530;2023-05-17T00:40:06;9.40;99.90
46336;DHT22;31365;48.858;8.530;2023-05-17T00:42:35;9.60;99.90
46336;DHT22;31365;48.858;8.530;2023-05-17T00:45:05;10.20;99.90
46336;DHT22;31365;48.858;8.530;2023-05-17T00:47:35;10.50;99.90
46336;DHT22;31365;48.858;8.530;2023-05-17T00:50:05;10.40;99.90
46336;DHT22;31365;48.858;8.530;2023-05-17T00:52:34;10.20;99.90
46336;DHT22;31365;48.858;8.530;2023-05-17T00:55:03;10.50;99.90
46336;DHT22;31365;48.858;8.530;2023-05-17T00:57:32;10.40;99.90
46336;DHT22;31365;48.858;8.530;2023-05-17T01:00:01;10.40;99.90
46336;DHT22;31365;48.858;8.530;2023-05-17T01:02:31;10.60;99.90
46336;DHT22;31365;48.858;8.530;2023-05-17T01:05:21;10.60;99.90
46336;DHT22;31365;48.858;8.530;2023-05-17T01:07:49;10.60;99.90
46336;DHT22;31365;48.858;8.530;2023-05-17T01:10:18;10.10;99.90
46336;DHT22;31365;48.858;8.530;2023-05-17T01:12:54;10.10;99.90
46336;DHT22;31365;48.858;8.530;2023-05-17T01:15:32;10.10;99.90
46336;DHT22;31365;48.858;8.530;2023-05-17T01:18:08;10.50;99.90
46336;DHT22;31365;48.858;8.530;2023-05-17T01:20:48;10.20;99.90
46336;DHT22;31365;48.858;8.530;2023-05-17T01:23:36;10.50;99.90
46336;DHT22;31365;48.858;8.530;2023-05-17T01:26:15;10.30;99.90
46336;DHT22;31365;48.858;8.530;2023-05-17T01:28:52;9.50;99.90
46336;DHT22;31365;48.858;8.530;2023-05-17T01:31:24;9.50;99.90
46336;DHT22;31365;48.858;8.530;2023-05-17T01:33:55;9.10;99.90
46336;DHT22;31365;48.858;8.530;2023-05-17T01:36:26;9.40;99.90
46336;DHT22;31365;48.858;8.530;2023-05-17T01:38:55;9.00;99.90
46336;DHT22;31365;48.858;8.530;2023-05-17T01:41:31;8.30;99.90
46336;DHT22;31365;48.858;8.530;2023-05-17T01:44:10;7.80;99.90
46336;DHT22;31365;48.858;8.530;2023-05-17T01:46:48;8.30;99.90
46336;DHT22;31365;48.858;8.530;2023-05-17T01:49:26;8.00;99.90
46336;DHT22;31365;48.858;8.530;2023-05-17T01:52:04;8.20;99.90
46336;DHT22;31365;48.858;8.530;2023-05-17T01:54:40;8.30;99.90
46336;DHT22;31365;48.858;8.530;2023-05-17T01:57:14;8.40;99.90
46336;DHT22;31365;48.858;8.530;2023-05-17T01:59:44;8.50;99.90
46336;DHT22;31365;48.858;8.530;2023-05-17T02:02:14;9.30;99.90
46336;DHT22;31365;48.858;8.530;2023-05-17T02:04:42;9.20;99.90
46336;DHT22;31365;48.858;8.530;2023-05-17T02:07:11;8.90;99.90
46336;DHT22;31365;48.858;8.530;2023-05-17T02:09:40;8.40;99.90
46336;DHT22;31365;48.858;8.530;2023-05-17T02:12:09;8.80;99.90
46336;DHT22;31365;48.858;8.530;2023-05-17T02:14:37;8.40;99.90
46336;DHT22;31365;48.858;8.530;2023-05-17T02:17:07;7.90;99.90
46336;DHT22;31365;48.858;8.530;2023-05-17T02:19:36;8.10;99.90
46336;DHT22;31365;48.858;8.530;2023-05-17T02:22:05;8.00;99.90
46336;DHT22;31365;48.858;8.530;2023-05-17T02:24:34;7.50;99.90
46336;DHT22;31365;48.858;8.530;2023-05-17T02:27:04;8.00;99.90
46336;DHT22;31365;48.858;8.530;2023-05-17T02:29:33;7.60;99.90
46336;DHT22;31365;48.858;8.530;2023-05-17T02:32:01;7.40;99.90
46336;DHT22;31365;48.858;8.530;2023-05-17T02:34:31;7.40;99.90
46336;DHT22;31365;48.858;8.530;2023-05-17T02:37:00;7.50;99.90
46336;DHT22;31365;48.858;8.530;2023-05-17T02:39:29;7.70;99.90
46336;DHT22;31365;48.858;8.530;2023-05-17T02:41:59;7.80;99.90
46336;DHT22;31365;48.858;8.530;2023-05-17T02:44:27;8.10;99.90
46336;DHT22;31365;48.858;8.530;2023-05-17T02:46:56;8.40;99.90
46336;DHT22;31365;48.858;8.530;2023-05-17T02:49:24;8.20;99.90
46336;DHT22;31365;48.858;8.530;2023-05-17T02:51:54;8.00;99.90
46336;DHT22;31365;48.858;8.530;2023-05-17T02:54:22;8.40;99.90
46336;DHT22;31365;48.858;8.530;2023-05-17T02:56:51;8.50;99.90
46336;DHT22;31365;48.858;8.530;2023-05-17T02:59:19;8.90;99.90
46336;DHT22;31365;48.858;8.530;2023-05-17T03:01:48;9.00;99.90
46336;DHT22;31365;48.858;8.530;2023-05-17T03:04:17;8.90;99.90
46336;DHT22;31365;48.858;8.530;2023-05-17T03:06:46;8.50;99.90
46336;DHT22;31365;48.858;8.530;2023-05-17T03:09:16;8.10;99.90
46336;DHT22;31365;48.858;8.530;2023-05-17T03:11:47;7.90;99.90
46336;DHT22;31365;48.858;8.530;2023-05-17T03:14:20;7.70;99.90
46336;DHT22;31365;48.858;8.530;2023-05-17T03:16:49;7.30;99.90
46336;DHT22;31365;48.858;8.530;2023-05-17T03:19:18;7.50;99.90
46336;DHT22;31365;48.858;8.530;2023-05-17T03:21:47;7.60;99.90
46336;DHT22;31365;48.858;8.530;2023-05-17T03:24:16;7.30;99.90
46336;DHT22;31365;48.858;8.530;2023-05-17T03:26:44;6.80;99.90
46336;DHT22;31365;48.858;8.530;2023-05-17T03:29:13;7.30;99.90
46336;DHT22;31365;48.858;8.530;2023-05-17T03:31:43;8.40;99.90
46336;DHT22;31365;48.858;8.530;2023-05-17T03:34:12;8.40;99.90
46336;DHT22;31365;48.858;8.530;2023-05-17T03:36:41;8.90;99.90
46336;DHT22;31365;48.858;8.530;2023-05-17T03:39:10;9.20;99.90
46336;DHT22;31365;48.858;8.530;2023-05-17T03:41:41;9.00;99.90
46336;DHT22;31365;48.858;8.530;2023-05-17T03:44:09;9.10;99.90
46336;DHT22;31365;48.858;8.530;2023-05-17T03:46:37;9.00;99.90
46336;DHT22;31365;48.858;8.530;2023-05-17T03:49:07;9.20;99.90
46336;DHT22;31365;48.858;8.530;2023-05-17T03:51:36;9.00;99.90
46336;DHT22;31365;48.858;8.530;2023-05-17T03:54:05;9.50;99.90
46336;DHT22;31365;48.858;8.530;2023-05-17T03:56:33;9.80;99.90
46336;DHT22;31365;48.858;8.530;2023-05-17T03:59:03;9.20;99.90
46336;DHT22;31365;48.858;8.530;2023-05-17T04:01:32;8.40;99.90
46336;DHT22;31365;48.858;8.530;2023-05-17T04:04:01;8.50;99.90
46336;DHT22;31365;48.858;8.530;2023-05-17T04:06:30;9.50;99.90
46336;DHT22;31365;48.858;8.530;2023-05-17T04:08:59;10.40;99.90
46336;DHT22;31365;48.858;8.530;2023-05-17T04:11:27;10.50;99.90
46336;DHT22;31365;48.858;8.530;2023-05-17T04:13:57;9.80;99.90
46336;DHT22;31365;48.858;8.530;2023-05-17T04:16:26;9.40;99.90
46336;DHT22;31365;48.858;8.530;2023-05-17T04:18:55;9.10;99.90
46336;DHT22;31365;48.858;8.530;2023-05-17T04:21:26;8.40;99.90
46336;DHT22;31365;48.858;8.530;2023-05-17T04:23:55;7.80;99.90
46336;DHT22;31365;48.858;8.530;2023-05-17T04:26:25;7.40;99.90
46336;DHT22;31365;48.858;8.530;2023-05-17T04:28:53;7.00;99.90
46336;DHT22;31365;48.858;8.530;2023-05-17T04:31:21;6.70;99.90
46336;DHT22;31365;48.858;8.530;2023-05-17T04:33:51;6.50;99.90
46336;DHT22;31365;48.858;8.530;2023-05-17T04:36:20;6.40;99.90
46336;DHT22;31365;48.858;8.530;2023-05-17T04:38:48;6.40;99.90
46336;DHT22;31365;48.858;8.530;2023-05-17T04:41:21;6.30;99.90
46336;DHT22;31365;48.858;8.530;2023-05-17T04:43:50;6.20;99.90
46336;DHT22;31365;48.858;8.530;2023-05-17T04:46:25;6.20;99.90
46336;DHT22;31365;48.858;8.530;2023-05-17T04:48:55;6.20;99.90
46336;DHT22;31365;48.858;8.530;2023-05-17T04:51:24;6.10;99.90
46336;DHT22;31365;48.858;8.530;2023-05-17T04:53:53;6.10;99.90
46336;DHT22;31365;48.858;8.530;2023-05-17T04:56:21;6.10;99.90
46336;DHT22;31365;48.858;8.530;2023-05-17T04:58:50;6.20;99.90
46336;DHT22;31365;48.858;8.530;2023-05-17T05:01:19;6.30;99.90
46336;DHT22;31365;48.858;8.530;2023-05-17T05:03:48;6.40;99.90
46336;DHT22;31365;48.858;8.530;2023-05-17T05:06:18;6.50;99.90
46336;DHT22;31365;48.858;8.530;2023-05-17T05:08:48;6.50;99.90
46336;DHT22;31365;48.858;8.530;2023-05-17T05:11:17;6.60;99.90
46336;DHT22;31365;48.858;8.530;2023-05-17T05:13:46;6.70;99.90
46336;DHT22;31365;48.858;8.530;2023-05-17T05:16:14;6.80;99.90
46336;DHT22;31365;48.858;8.530;2023-05-17T05:18:43;6.90;99.90
46336;DHT22;31365;48.858;8.530;2023-05-17T05:21:12;7.00;99.90
46336;DHT22;31365;48.858;8.530;2023-05-17T05:23:41;7.00;99.90
46336;DHT22;31365;48.858;8.530;2023-05-17T05:26:11;7.00;99.90
46336;DHT22;31365;48.858;8.530;2023-05-17T05:28:39;7.10;99.90
46336;DHT22;31365;48.858;8.530;2023-05-17T05:31:08;7.10;99.90
46336;DHT22;31365;48.858;8.530;2023-05-17T05:33:42;7.20;99.90
46336;DHT22;31365;48.858;8.530;2023-05-17T05:36:10;7.20;99.90
46336;DHT22;31365;48.858;8.530;2023-05-17T05:38:38;8.60;99.90
46336;DHT22;31365;48.858;8.530;2023-05-17T05:41:08;9.50;99.90
46336;DHT22;31365;48.858;8.530;2023-05-17T05:43:36;10.20;99.90
46336;DHT22;31365;48.858;8.530;2023-05-17T05:46:04;10.70;99.90
46336;DHT22;31365;48.858;8.530;2023-05-17T05:48:33;11.10;99.90
46336;DHT22;31365;48.858;8.530;2023-05-17T05:51:05;11.20;99.90
46336;DHT22;31365;48.858;8.530;2023-05-17T05:53:35;11.30;99.90
46336;DHT22;31365;48.858;8.530;2023-05-17T05:56:04;11.30;99.90
46336;DHT22;31365;48.858;8.530;2023-05-17T05:58:34;11.20;99.90
46336;DHT22;31365;48.858;8.530;2023-05-17T06:01:03;11.10;99.90
46336;DHT22;31365;48.858;8.530;2023-05-17T06:03:32;11.60;99.90
46336;DHT22;31365;48.858;8.530;2023-05-17T06:06:00;12.30;99.90
46336;DHT22;31365;48.858;8.530;2023-05-17T06:08:29;13.00;99.90
46336;DHT22;31365;48.858;8.530;2023-05-17T06:10:59;13.30;99.90
46336;DHT22;31365;48.858;8.530;2023-05-17T06:13:28;13.80;99.90
46336;DHT22;31365;48.858;8.530;2023-05-17T06:15:58;13.60;99.90
46336;DHT22;31365;48.858;8.530;2023-05-17T06:18:26;13.50;99.90
46336;DHT22;31365;48.858;8.530;2023-05-17T06:20:55;13.10;99.90
46336;DHT22;31365;48.858;8.530;2023-05-17T06:23:24;12.70;99.90
46336;DHT22;31365;48.858;8.530;2023-05-17T06:25:52;12.20;99.90
46336;DHT22;31365;48.858;8.530;2023-05-17T06:28:21;11.80;99.90
46336;DHT22;31365;48.858;8.530;2023-05-17T06:30:50;12.20;99.90
46336;DHT22;31365;48.858;8.530;2023-05-17T06:33:19;13.10;99.90
46336;DHT22;31365;48.858;8.530;2023-05-17T06:35:48;13.60;99.90
46336;DHT22;31365;48.858;8.530;2023-05-17T06:38:23;13.70;99.90
46336;DHT22;31365;48.858;8.530;2023-05-17T06:40:52;13.20;99.90
46336;DHT22;31365;48.858;8.530;2023-05-17T06:43:21;13.40;99.90
46336;DHT22;31365;48.858;8.530;2023-05-17T06:45:50;13.40;99.90
46336;DHT22;31365;48.858;8.530;2023-05-17T06:48:19;13.70;99.90
46336;DHT22;31365;48.858;8.530;2023-05-17T06:50:47;14.50;99.90
46336;DHT22;31365;48.858;8.530;2023-05-17T06:53:16;15.20;99.90
46336;DHT22;31365;48.858;8.530;2023-05-17T06:55:44;15.50;99.90
46336;DHT22;31365;48.858;8.530;2023-05-17T06:58:13;15.50;99.90
46336;DHT22;31365;48.858;8.530;2023-05-17T07:00:41;15.30;99.90
46336;DHT22;31365;48.858;8.530;2023-05-17T07:03:09;15.30;99.90
46336;DHT22;31365;48.858;8.530;2023-05-17T07:05:40;15.50;99.90
46336;DHT22;31365;48.858;8.530;2023-05-17T07:08:08;15.30;99.90
46336;DHT22;31365;48.858;8.530;2023-05-17T07:10:37;15.10;99.90
46336;DHT22;31365;48.858;8.530;2023-05-17T07:13:05;15.20;99.90
46336;DHT22;31365;48.858;8.530;2023-05-17T07:15:33;15.30;99.90
46336;DHT22;31365;48.858;8.530;2023-05-17T07:18:02;14.70;99.90
46336;DHT22;31365;48.858;8.530;2023-05-17T07:29:07;14.50;99.90
46336;DHT22;31365;48.858;8.530;2023-05-17T07:31:35;14.20;99.90
46336;DHT22;31365;48.858;8.530;2023-05-17T07:34:04;14.30;99.90
46336;DHT22;31365;48.858;8.530;2023-05-17T07:36:32;14.80;99.90
46336;DHT22;31365;48.858;8.530;2023-05-17T07:39:00;15.00;99.90
46336;DHT22;31365;48.858;8.530;2023-05-17T07:41:30;14.90;99.90
46336;DHT22;31365;48.858;8.530;2023-05-17T07:43:59;15.30;99.90
46336;DHT22;31365;48.858;8.530;2023-05-17T07:46:29;15.10;99.90
46336;DHT22;31365;48.858;8.530;2023-05-17T07:48:58;14.80;99.90
46336;DHT22;31365;48.858;8.530;2023-05-17T07:51:26;14.50;99.90
46336;DHT22;31365;48.858;8.530;2023-05-17T07:53:54;14.90;99.90
46336;DHT22;31365;48.858;8.530;2023-05-17T07:56:22;15.20;99.90
46336;DHT22;31365;48.858;8.530;2023-05-17T07:58:50;15.50;99.90
46336;DHT22;31365;48.858;8.530;2023-05-17T08:01:19;15.30;99.90
46336;DHT22;31365;48.858;8.530;2023-05-17T08:03:50;15.50;99.90
46336;DHT22;31365;48.858;8.530;2023-05-17T08:06:18;15.30;99.90
46336;DHT22;31365;48.858;8.530;2023-05-17T08:08:47;15.20;99.90
46336;DHT22;31365;48.858;8.530;2023-05-17T08:11:15;15.50;99.90
46336;DHT22;31365;48.858;8.530;2023-05-17T08:13:44;15.30;99.90
46336;DHT22;31365;48.858;8.530;2023-05-17T08:16:12;15.00;99.90
46336;DHT22;31365;48.858;8.530;2023-05-17T08:18:41;15.00;99.90
46336;DHT22;31365;48.858;8.530;2023-05-17T08:21:12;15.40;99.90
46336;DHT22;31365;48.858;8.530;2023-05-17T08:23:40;15.60;99.90
46336;DHT22;31365;48.858;8.530;2023-05-17T08:26:09;15.10;99.90
46336;DHT22;31365;48.858;8.530;2023-05-17T08:28:39;15.30;99.90
46336;DHT22;31365;48.858;8.530;2023-05-17T08:31:07;15.30;99.90
46336;DHT22;31365;48.858;8.530;2023-05-17T08:33:35;15.30;99.90
46336;DHT22;31365;48.858;8.530;2023-05-17T08:36:04;15.40;99.90
46336;DHT22;31365;48.858;8.530;2023-05-17T08:38:35;15.30;99.90
46336;DHT22;31365;48.858;8.530;2023-05-17T08:41:03;15.00;99.90
46336;DHT22;31365;48.858;8.530;2023-05-17T08:43:31;15.20;99.90
46336;DHT22;31365;48.858;8.530;2023-05-17T08:46:00;15.30;99.90
46336;DHT22;31365;48.858;8.530;2023-05-17T08:48:30;15.80;99.90
46336;DHT22;31365;48.858;8.530;2023-05-17T08:50:58;16.20;99.90
46336;DHT22;31365;48.858;8.530;2023-05-17T08:53:27;16.30;99.90
46336;DHT22;31365;48.858;8.530;2023-05-17T08:55:58;16.50;99.90
46336;DHT22;31365;48.858;8.530;2023-05-17T08:58:32;16.20;99.90
46336;DHT22;31365;48.858;8.530;2023-05-17T09:01:22;16.30;99.90
46336;DHT22;31365;48.858;8.530;2023-05-17T09:03:52;16.70;99.90
46336;DHT22;31365;48.858;8.530;2023-05-17T09:06:30;16.50;99.90
46336;DHT22;31365;48.858;8.530;2023-05-17T09:08:59;16.50;99.90
46336;DHT22;31365;48.858;8.530;2023-05-17T09:11:30;16.30;99.90
46336;DHT22;31365;48.858;8.530;2023-05-17T09:14:01;15.90;99.90
46336;DHT22;31365;48.858;8.530;2023-05-17T09:16:31;15.60;99.90
46336;DHT22;31365;48.858;8.530;2023-05-17T09:19:03;15.50;99.90
46336;DHT22;31365;48.858;8.530;2023-05-17T09:21:33;16.00;99.90
46336;DHT22;31365;48.858;8.530;2023-05-17T09:24:02;16.30;99.90
46336;DHT22;31365;48.858;8.530;2023-05-17T09:26:39;16.50;99.90
46336;DHT22;31365;48.858;8.530;2023-05-17T09:29:10;16.80;99.90
46336;DHT22;31365;48.858;8.530;2023-05-17T09:31:39;16.40;99.90
46336;DHT22;31365;48.858;8.530;2023-05-17T09:34:09;16.00;99.90
46336;DHT22;31365;48.858;8.530;2023-05-17T09:36:41;16.00;99.90
46336;DHT22;31365;48.858;8.530;2023-05-17T09:39:10;15.70;99.90
46336;DHT22;31365;48.858;8.530;2023-05-17T09:41:43;15.60;99.90
46336;DHT22;31365;48.858;8.530;2023-05-17T09:44:14;15.60;99.90
46336;DHT22;31365;48.858;8.530;2023-05-17T09:46:44;16.20;99.90
46336;DHT22;31365;48.858;8.530;2023-05-17T09:49:13;16.60;99.90
46336;DHT22;31365;48.858;8.530;2023-05-17T09:51:45;16.90;99.90
46336;DHT22;31365;48.858;8.530;2023-05-17T09:54:14;17.10;99.90
46336;DHT22;31365;48.858;8.530;2023-05-17T09:56:52;17.20;99.90
46336;DHT22;31365;48.858;8.530;2023-05-17T09:59:21;17.00;99.90
46336;DHT22;31365;48.858;8.530;2023-05-17T10:01:54;17.10;99.90
46336;DHT22;31365;48.858;8.530;2023-05-17T10:04:28;17.20;99.90
46336;DHT22;31365;48.858;8.530;2023-05-17T10:07:01;17.20;99.90
46336;DHT22;31365;48.858;8.530;2023-05-17T10:09:30;17.50;99.90
46336;DHT22;31365;48.858;8.530;2023-05-17T10:12:05;17.50;99.90
46336;DHT22;31365;48.858;8.530;2023-05-17T10:14:36;17.60;99.90
46336;DHT22;31365;48.858;8.530;2023-05-17T10:17:06;17.70;99.90
46336;DHT22;31365;48.858;8.530;2023-05-17T10:19:36;17.50;99.90
46336;DHT22;31365;48.858;8.530;2023-05-17T10:22:05;16.90;99.90
46336;DHT22;31365;48.858;8.530;2023-05-17T10:24:49;16.90;99.90
46336;DHT22;31365;48.858;8.530;2023-05-17T10:27:19;17.10;99.90
46336;DHT22;31365;48.858;8.530;2023-05-17T10:29:49;17.20;99.90
46336;DHT22;31365;48.858;8.530;2023-05-17T10:32:21;16.90;99.90
46336;DHT22;31365;48.858;8.530;2023-05-17T10:34:53;16.20;99.90
46336;DHT22;31365;48.858;8.530;2023-05-17T10:37:38;16.20;99.90
46336;DHT22;31365;48.858;8.530;2023-05-17T10:40:08;16.50;99.90
46336;DHT22;31365;48.858;8.530;2023-05-17T10:42:43;16.50;99.90
46336;DHT22;31365;48.858;8.530;2023-05-17T10:45:19;16.30;99.90
46336;DHT22;31365;48.858;8.530;2023-05-17T10:47:50;16.40;99.90
46336;DHT22;31365;48.858;8.530;2023-05-17T10:50:21;16.70;99.90
46336;DHT22;31365;48.858;8.530;2023-05-17T10:52:52;16.60;99.90
46336;DHT22;31365;48.858;8.530;2023-05-17T10:55:22;16.30;99.90
46336;DHT22;31365;48.858;8.530;2023-05-17T10:58:15;16.20;99.90
46336;DHT22;31365;48.858;8.530;2023-05-17T11:00:47;16.40;99.90
46336;DHT22;31365;48.858;8.530;2023-05-17T11:03:20;16.30;99.90
46336;DHT22;31365;48.858;8.530;2023-05-17T11:06:12;16.30;99.90
46336;DHT22;31365;48.858;8.530;2023-05-17T11:09:12;16.70;99.90
46336;DHT22;31365;48.858;8.530;2023-05-17T11:12:03;16.50;99.90
46336;DHT22;31365;48.858;8.530;2023-05-17T11:14:48;16.60;99.90
46336;DHT22;31365;48.858;8.530;2023-05-17T11:17:19;16.70;99.90
46336;DHT22;31365;48.858;8.530;2023-05-17T11:19:55;16.70;99.90
46336;DHT22;31365;48.858;8.530;2023-05-17T11:22:35;17.00;99.90
46336;DHT22;31365;48.858;8.530;2023-05-17T11:25:07;17.00;99.90
46336;DHT22;31365;48.858;8.530;2023-05-17T11:27:44;16.90;99.90
46336;DHT22;31365;48.858;8.530;2023-05-17T11:30:21;16.90;99.90
46336;DHT22;31365;48.858;8.530;2023-05-17T11:32:56;16.80;99.90
46336;DHT22;31365;48.858;8.530;2023-05-17T11:35:26;16.80;99.90
46336;DHT22;31365;48.858;8.530;2023-05-17T11:38:21;16.80;99.90
46336;DHT22;31365;48.858;8.530;2023-05-17T11:40:56;17.10;99.90
46336;DHT22;31365;48.858;8.530;2023-05-17T11:43:26;16.70;99.90
46336;DHT22;31365;48.858;8.530;2023-05-17T11:45:58;16.70;99.90
46336;DHT22;31365;48.858;8.530;2023-05-17T11:48:29;16.80;99.90
46336;DHT22;31365;48.858;8.530;2023-05-17T11:50:58;17.00;99.90
46336;DHT22;31365;48.858;8.530;2023-05-17T11:53:30;16.60;99.90
46336;DHT22;31365;48.858;8.530;2023-05-17T11:56:01;16.60;99.90
46336;DHT22;31365;48.858;8.530;2023-05-17T11:58:30;16.70;99.90
46336;DHT22;31365;48.858;8.530;2023-05-17T12:01:01;17.00;99.90
46336;DHT22;31365;48.858;8.530;2023-05-17T12:03:31;17.30;99.90
46336;DHT22;31365;48.858;8.530;2023-05-17T12:06:02;17.40;99.90
46336;DHT22;31365;48.858;8.530;2023-05-17T12:08:32;17.50;99.90
46336;DHT22;31365;48.858;8.530;2023-05-17T12:11:01;17.30;99.90
46336;DHT22;31365;48.858;8.530;2023-05-17T12:13:33;17.10;99.90
46336;DHT22;31365;48.858;8.530;2023-05-17T12:16:06;17.00;99.90
46336;DHT22;31365;48.858;8.530;2023-05-17T12:18:43;17.30;99.90
46336;DHT22;31365;48.858;8.530;2023-05-17T12:21:15;17.30;99.90
46336;DHT22;31365;48.858;8.530;2023-05-17T12:23:45;17.20;99.90
46336;DHT22;31365;48.858;8.530;2023-05-17T12:26:18;17.30;99.90
46336;DHT22;31365;48.858;8.530;2023-05-17T12:28:53;17.40;99.90
46336;DHT22;31365;48.858;8.530;2023-05-17T12:31:28;17.60;99.90
46336;DHT22;31365;48.858;8.530;2023-05-17T12:34:00;17.80;99.90
46336;DHT22;31365;48.858;8.530;2023-05-17T12:36:29;18.20;99.90
46336;DHT22;31365;48.858;8.530;2023-05-17T12:39:00;18.50;99.90
46336;DHT22;31365;48.858;8.530;2023-05-17T12:41:30;18.50;99.90
46336;DHT22;31365;48.858;8.530;2023-05-17T12:43:58;18.30;99.90
46336;DHT22;31365;48.858;8.530;2023-05-17T12:46:43;18.00;99.90
46336;DHT22;31365;48.858;8.530;2023-05-17T12:49:13;17.50;99.90
46336;DHT22;31365;48.858;8.530;2023-05-17T12:51:42;17.40;99.90
46336;DHT22;31365;48.858;8.530;2023-05-17T12:54:13;17.50;99.90
46336;DHT22;31365;48.858;8.530;2023-05-17T12:56:44;17.30;99.90
46336;DHT22;31365;48.858;8.530;2023-05-17T12:59:13;16.90;99.90
46336;DHT22;31365;48.858;8.530;2023-05-17T13:01:46;17.00;99.90
46336;DHT22;31365;48.858;8.530;2023-05-17T13:04:16;17.20;99.90
46336;DHT22;31365;48.858;8.530;2023-05-17T13:06:46;17.20;99.90
46336;DHT22;31365;48.858;8.530;2023-05-17T13:09:16;17.20;99.90
46336;DHT22;31365;48.858;8.530;2023-05-17T13:11:50;17.20;99.90
46336;DHT22;31365;48.858;8.530;2023-05-17T13:14:33;16.90;99.90
46336;DHT22;31365;48.858;8.530;2023-05-17T13:17:06;16.70;99.90
46336;DHT22;31365;48.858;8.530;2023-05-17T13:19:36;16.80;99.90
46336;DHT22;31365;48.858;8.530;2023-05-17T13:22:05;16.90;99.90
46336;DHT22;31365;48.858;8.530;2023-05-17T13:24:35;16.70;99.90
46336;DHT22;31365;48.858;8.530;2023-05-17T13:27:05;16.30;99.90
46336;DHT22;31365;48.858;8.530;2023-05-17T13:29:35;16.30;99.90
46336;DHT22;31365;48.858;8.530;2023-05-17T13:32:09;16.60;99.90
46336;DHT22;31365;48.858;8.530;2023-05-17T13:34:40;17.10;99.90
46336;DHT22;31365;48.858;8.530;2023-05-17T13:37:08;17.40;99.90
46336;DHT22;31365;48.858;8.530;2023-05-17T13:39:39;17.70;99.90
46336;DHT22;31365;48.858;8.530;2023-05-17T13:42:08;17.60;99.90
46336;DHT22;31365;48.858;8.530;2023-05-17T13:44:37;17.80;99.90
46336;DHT22;31365;48.858;8.530;2023-05-17T13:47:05;17.70;99.90
46336;DHT22;31365;48.858;8.530;2023-05-17T13:49:35;17.80;99.90
46336;DHT22;31365;48.858;8.530;2023-05-17T13:52:04;17.60;99.90
46336;DHT22;31365;48.858;8.530;2023-05-17T13:54:34;17.70;99.90
46336;DHT22;31365;48.858;8.530;2023-05-17T13:57:04;17.80;99.90
46336;DHT22;31365;48.858;8.530;2023-05-17T13:59:33;18.10;99.90
46336;DHT22;31365;48.858;8.530;2023-05-17T14:02:01;18.30;99.90
46336;DHT22;31365;48.858;8.530;2023-05-17T14:04:31;18.60;99.90
46336;DHT22;31365;48.858;8.530;2023-05-17T14:07:01;18.40;99.90
46336;DHT22;31365;48.858;8.530;2023-05-17T14:09:31;18.50;99.90
46336;DHT22;31365;48.858;8.530;2023-05-17T14:12:00;18.80;99.90
46336;DHT22;31365;48.858;8.530;2023-05-17T14:14:29;19.20;99.90
46336;DHT22;31365;48.858;8.530;2023-05-17T14:16:57;19.30;99.90
46336;DHT22;31365;48.858;8.530;2023-05-17T14:19:27;19.00;99.90
46336;DHT22;31365;48.858;8.530;2023-05-17T14:21:55;18.90;99.90
46336;DHT22;31365;48.858;8.530;2023-05-17T14:24:25;19.40;99.90
46336;DHT22;31365;48.858;8.530;2023-05-17T14:26:53;20.00;99.90
46336;DHT22;31365;48.858;8.530;2023-05-17T14:29:23;19.60;99.90
46336;DHT22;31365;48.858;8.530;2023-05-17T14:31:51;19.10;99.90
46336;DHT22;31365;48.858;8.530;2023-05-17T14:34:19;18.70;99.90
46336;DHT22;31365;48.858;8.530;2023-05-17T14:36:48;18.50;99.90
46336;DHT22;31365;48.858;8.530;2023-05-17T14:39:16;18.50;99.90
46336;DHT22;31365;48.858;8.530;2023-05-17T14:41:46;18.70;99.90
46336;DHT22;31365;48.858;8.530;2023-05-17T14:44:15;20.30;99.90
46336;DHT22;31365;48.858;8.530;2023-05-17T14:46:43;21.00;99.90
46336;DHT22;31365;48.858;8.530;2023-05-17T14:49:11;21.30;99.90
46336;DHT22;31365;48.858;8.530;2023-05-17T14:51:40;21.40;99.90
46336;DHT22;31365;48.858;8.530;2023-05-17T14:54:09;21.60;99.90
46336;DHT22;31365;48.858;8.530;2023-05-17T14:56:39;22.30;99.90
46336;DHT22;31365;48.858;8.530;2023-05-17T14:59:09;22.80;99.90
46336;DHT22;31365;48.858;8.530;2023-05-17T15:01:38;23.80;99.90
46336;DHT22;31365;48.858;8.530;2023-05-17T15:04:07;25.00;99.90
46336;DHT22;31365;48.858;8.530;2023-05-17T15:06:36;25.50;99.90
46336;DHT22;31365;48.858;8.530;2023-05-17T15:09:05;24.90;99.90
46336;DHT22;31365;48.858;8.530;2023-05-17T15:11:33;23.60;95.50
46336;DHT22;31365;48.858;8.530;2023-05-17T15:14:01;22.50;98.00
46336;DHT22;31365;48.858;8.530;2023-05-17T15:16:31;21.30;99.90
46336;DHT22;31365;48.858;8.530;2023-05-17T15:18:59;20.60;99.90
46336;DHT22;31365;48.858;8.530;2023-05-17T15:21:27;20.10;99.90
46336;DHT22;31365;48.858;8.530;2023-05-17T15:23:56;19.60;99.90
46336;DHT22;31365;48.858;8.530;2023-05-17T15:26:24;19.40;99.90
46336;DHT22;31365;48.858;8.530;2023-05-17T15:28:53;19.20;99.90
46336;DHT22;31365;48.858;8.530;2023-05-17T15:31:21;19.10;99.90
46336;DHT22;31365;48.858;8.530;2023-05-17T15:33:52;19.00;99.90
46336;DHT22;31365;48.858;8.530;2023-05-17T15:36:20;18.90;99.90
46336;DHT22;31365;48.858;8.530;2023-05-17T15:38:49;18.70;99.90
46336;DHT22;31365;48.858;8.530;2023-05-17T15:41:17;18.40;99.90
46336;DHT22;31365;48.858;8.530;2023-05-17T15:43:47;18.50;99.90
46336;DHT22;31365;48.858;8.530;2023-05-17T15:46:15;18.50;99.90
46336;DHT22;31365;48.858;8.530;2023-05-17T15:48:43;18.80;99.90
46336;DHT22;31365;48.858;8.530;2023-05-17T15:51:13;18.80;99.90
46336;DHT22;31365;48.858;8.530;2023-05-17T15:53:41;18.80;99.90
46336;DHT22;31365;48.858;8.530;2023-05-17T15:56:10;18.70;99.90
46336;DHT22;31365;48.858;8.530;2023-05-17T15:58:38;18.60;99.90
46336;DHT22;31365;48.858;8.530;2023-05-17T16:01:07;18.20;99.90
46336;DHT22;31365;48.858;8.530;2023-05-17T16:03:35;18.20;99.90